Time;durP1;ratioP1;P1;durP2;ratioP2;P2;SDS_P1;SDS_P2;PMS_P1;PMS_P2;Temp;Humidity;BMP_temperature;BMP_pressure;BME280_temperature;BME280_humidity;BME280_pressure;Samples;Min_cycle;Max_cycle;Signal;HPM_P1;HPM_P2
2024/01/11 00:00:16;;;;;;;0.30;0.30;;;-1.70;99.90;;;;;;5088028;28;20177;-73
2024/01/11 00:02:42;;;;;;;0.30;0.30;;;-1.70;99.90;;;;;;5089029;28;20318;-78
2024/01/11 00:05:08;;;;;;;0.30;0.30;;;-1.70;99.90;;;;;;5088396;28;20323;-78
2024/01/11 00:07:34;;;;;;;0.45;0.45;;;-1.80;99.90;;;;;;5088523;28;20153;-73
2024/01/11 00:10:01;;;;;;;0.30;0.30;;;-1.80;99.90;;;;;;5087972;28;20245;-79
2024/01/11 00:12:27;;;;;;;0.30;0.30;;;-1.80;99.90;;;;;;5088693;28;20594;-74
2024/01/11 00:14:53;;;;;;;0.30;0.30;;;-1.90;99.90;;;;;;5088759;28;20460;-74
2024/01/11 00:17:18;;;;;;;0.30;0.30;;;-1.90;99.90;;;;;;5092714;28;20432;-78
2024/01/11 00:19:44;;;;;;;0.30;0.30;;;-1.90;99.90;;;;;;5091109;28;20212;-78
2024/01/11 00:22:10;;;;;;;0.30;0.30;;;-1.90;99.90;;;;;;5092713;28;20558;-77
2024/01/11 00:24:36;;;;;;;0.30;0.30;;;-1.80;99.90;;;;;;5092019;28;20219;-79
2024/01/11 00:27:01;;;;;;;0.30;0.30;;;-1.80;99.90;;;;;;5092488;28;20259;-77
2024/01/11 00:29:28;;;;;;;0.30;0.30;;;-1.90;99.90;;;;;;5092372;28;20197;-74
2024/01/11 00:31:54;;;;;;;0.30;0.30;;;-1.90;99.90;;;;;;5092730;28;20169;-74
2024/01/11 00:34:21;;;;;;;0.30;0.30;;;-2.00;99.90;;;;;;5091790;28;20351;-78
2024/01/11 00:36:47;;;;;;;0.30;0.30;;;-2.00;99.90;;;;;;5090739;28;20180;-78
2024/01/11 00:39:12;;;;;;;0.30;0.30;;;-2.10;99.90;;;;;;5090320;28;20657;-79
2024/01/11 00:41:38;;;;;;;0.30;0.30;;;-2.10;99.90;;;;;;5092146;28;20419;-74
2024/01/11 00:44:04;;;;;;;0.30;0.30;;;-2.20;99.90;;;;;;5091907;28;20193;-78
2024/01/11 00:46:30;;;;;;;0.30;0.30;;;-2.20;99.90;;;;;;5092490;28;20216;-79
2024/01/11 00:48:55;;;;;;;0.30;0.30;;;-2.30;99.90;;;;;;5091705;28;20689;-74
2024/01/11 00:51:21;;;;;;;0.30;0.30;;;-2.30;99.90;;;;;;5092461;28;20444;-78
2024/01/11 00:53:47;;;;;;;0.30;0.30;;;-2.30;99.90;;;;;;5091963;28;20571;-74
2024/01/11 00:56:16;;;;;;;0.30;0.30;;;-2.30;99.90;;;;;;5091939;28;20184;-78
2024/01/11 00:58:42;;;;;;;0.30;0.30;;;-2.30;99.90;;;;;;5091492;28;20880;-73
2024/01/11 01:01:11;;;;;;;0.30;0.30;;;-2.30;99.90;;;;;;5090819;28;20211;-79
2024/01/11 01:03:38;;;;;;;0.30;0.30;;;-2.30;99.90;;;;;;5091820;28;20245;-73
2024/01/11 01:06:03;;;;;;;0.30;0.30;;;-2.30;99.90;;;;;;5091489;28;20224;-73
2024/01/11 01:08:29;;;;;;;0.30;0.30;;;-2.40;99.90;;;;;;5090291;28;20199;-79
2024/01/11 01:10:55;;;;;;;0.30;0.30;;;-2.40;99.90;;;;;;5090481;28;20411;-74
2024/01/11 01:13:21;;;;;;;0.30;0.30;;;-2.40;99.90;;;;;;5090446;28;20495;-74
2024/01/11 01:15:47;;;;;;;0.30;0.30;;;-2.50;99.90;;;;;;5091583;28;20388;-79
2024/01/11 01:18:12;;;;;;;0.30;0.30;;;-2.50;99.90;;;;;;5091110;28;20783;-78
2024/01/11 01:20:38;;;;;;;0.30;0.30;;;-2.40;99.90;;;;;;5090158;28;20180;-74
2024/01/11 01:23:04;;;;;;;0.30;0.30;;;-2.40;99.90;;;;;;5091236;28;20196;-78
2024/01/11 01:25:30;;;;;;;0.30;0.30;;;-2.40;99.90;;;;;;5091596;28;20216;-78
2024/01/11 01:27:56;;;;;;;0.30;0.30;;;-2.40;99.90;;;;;;5090967;28;20657;-74
2024/01/11 01:30:22;;;;;;;0.30;0.30;;;-2.40;99.90;;;;;;5091724;28;20399;-79
2024/01/11 01:32:47;;;;;;;0.30;0.30;;;-2.40;99.90;;;;;;5089676;28;20193;-78
2024/01/11 01:35:13;;;;;;;0.30;0.30;;;-2.40;99.90;;;;;;5089145;28;20181;-78
2024/01/11 01:37:39;;;;;;;0.30;0.30;;;-2.30;99.90;;;;;;5090797;28;20247;-79
2024/01/11 01:40:07;;;;;;;0.30;0.30;;;-2.30;99.90;;;;;;5091113;28;20564;-78
2024/01/11 01:42:33;;;;;;;0.30;0.30;;;-2.40;99.90;;;;;;5090758;28;20645;-74
2024/01/11 01:44:59;;;;;;;0.30;0.30;;;-2.40;99.90;;;;;;5089766;28;20215;-74
2024/01/11 01:47:26;;;;;;;0.30;0.30;;;-2.40;99.90;;;;;;5090771;28;20218;-78
2024/01/11 01:49:52;;;;;;;0.30;0.30;;;-2.50;99.90;;;;;;5090775;28;20526;-78
2024/01/11 01:52:20;;;;;;;0.30;0.30;;;-2.50;99.90;;;;;;5089668;28;20285;-78
2024/01/11 01:54:47;;;;;;;0.30;0.30;;;-2.50;99.90;;;;;;5090764;28;20195;-73
2024/01/11 01:57:14;;;;;;;0.30;0.30;;;-2.50;99.90;;;;;;5089581;28;20693;-78
2024/01/11 01:59:40;;;;;;;0.30;0.30;;;-2.50;99.90;;;;;;5090428;28;20618;-78
2024/01/11 02:02:07;;;;;;;0.30;0.30;;;-2.40;99.90;;;;;;5089368;28;20173;-78
2024/01/11 02:04:33;;;;;;;0.30;0.30;;;-2.50;99.90;;;;;;5090170;28;20287;-73
2024/01/11 02:06:59;;;;;;;0.30;0.30;;;-2.50;99.90;;;;;;5090389;28;20239;-74
2024/01/11 02:09:25;;;;;;;0.30;0.30;;;-2.50;99.90;;;;;;5089124;28;20198;-78
2024/01/11 02:11:53;;;;;;;0.30;0.30;;;-2.40;99.90;;;;;;5088381;28;20176;-74
2024/01/11 02:14:19;;;;;;;0.30;0.30;;;-2.40;99.90;;;;;;5088524;28;20861;-73
2024/01/11 02:16:45;;;;;;;0.30;0.30;;;-2.40;99.90;;;;;;5090400;28;20255;-74
2024/01/11 02:19:17;;;;;;;0.30;0.30;;;-2.40;99.90;;;;;;5088796;28;20277;-78
2024/01/11 02:21:43;;;;;;;0.30;0.30;;;-2.40;99.90;;;;;;5088991;28;20649;-78
2024/01/11 02:24:10;;;;;;;0.30;0.30;;;-2.40;99.90;;;;;;5089936;28;20204;-73
2024/01/11 02:26:36;;;;;;;0.30;0.30;;;-2.40;99.90;;;;;;5090109;28;20397;-78
2024/01/11 02:29:02;;;;;;;0.30;0.30;;;-2.40;99.90;;;;;;5089883;28;20196;-74
2024/01/11 02:31:28;;;;;;;0.30;0.30;;;-2.40;99.90;;;;;;5090525;28;20868;-77
2024/01/11 02:33:55;;;;;;;0.30;0.30;;;-2.40;99.90;;;;;;5088390;28;20855;-75
2024/01/11 02:36:21;;;;;;;0.30;0.30;;;-2.30;99.90;;;;;;5089786;28;20173;-74
2024/01/11 02:38:48;;;;;;;0.30;0.30;;;-2.30;99.90;;;;;;5087951;28;20669;-74
2024/01/11 02:41:18;;;;;;;0.30;0.30;;;-2.30;99.90;;;;;;5088890;28;20185;-75
2024/01/11 02:43:48;;;;;;;0.30;0.30;;;-2.40;99.90;;;;;;5089681;28;20275;-78
2024/01/11 02:46:15;;;;;;;0.30;0.30;;;-2.40;99.90;;;;;;5090135;28;20273;-74
2024/01/11 02:48:41;;;;;;;0.30;0.30;;;-2.40;99.90;;;;;;5088207;28;20681;-74
2024/01/11 02:51:06;;;;;;;0.30;0.30;;;-2.40;99.90;;;;;;5088716;28;20238;-78
2024/01/11 02:53:34;;;;;;;0.30;0.30;;;-2.40;99.90;;;;;;5088065;28;20196;-78
2024/01/11 02:56:00;;;;;;;0.30;0.30;;;-2.40;99.90;;;;;;5089903;28;20270;-78
2024/01/11 02:58:26;;;;;;;0.30;0.30;;;-2.30;99.90;;;;;;5088178;28;20202;-79
2024/01/11 03:00:52;;;;;;;0.30;0.30;;;-2.30;99.90;;;;;;5089598;28;20565;-78
2024/01/11 03:03:17;;;;;;;0.30;0.30;;;-2.30;99.90;;;;;;5089458;28;20192;-79
2024/01/11 03:05:43;;;;;;;0.30;0.30;;;-2.30;99.90;;;;;;5089326;28;20228;-74
2024/01/11 03:08:09;;;;;;;0.30;0.30;;;-2.30;99.90;;;;;;5087516;28;20204;-73
2024/01/11 03:10:38;;;;;;;0.30;0.30;;;-2.30;99.90;;;;;;5089776;28;20443;-74
2024/01/11 03:13:05;;;;;;;0.30;0.30;;;-2.30;99.90;;;;;;5087986;28;20546;-78
2024/01/11 03:15:30;;;;;;;0.30;0.30;;;-2.40;99.90;;;;;;5087727;28;20188;-78
2024/01/11 03:17:56;;;;;;;0.30;0.30;;;-2.40;99.90;;;;;;5089048;28;20189;-77
2024/01/11 03:20:24;;;;;;;0.30;0.30;;;-2.40;99.90;;;;;;5089648;28;20646;-72
2024/01/11 03:22:53;;;;;;;0.30;0.30;;;-2.40;99.90;;;;;;5089764;28;20200;-77
2024/01/11 03:25:18;;;;;;;0.30;0.30;;;-2.50;99.90;;;;;;5089716;28;20226;-73
2024/01/11 03:27:44;;;;;;;0.30;0.30;;;-2.60;99.90;;;;;;5088447;28;20684;-77
2024/01/11 03:30:10;;;;;;;0.30;0.30;;;-2.60;99.90;;;;;;5089888;28;20169;-73
2024/01/11 03:32:36;;;;;;;0.30;0.30;;;-2.70;99.90;;;;;;5088114;28;20184;-73
2024/01/11 03:35:02;;;;;;;0.30;0.30;;;-2.70;99.90;;;;;;5087828;28;20183;-73
2024/01/11 03:37:28;;;;;;;0.30;0.30;;;-2.80;99.90;;;;;;5087789;28;20177;-73
2024/01/11 03:39:53;;;;;;;0.30;0.30;;;-2.80;99.90;;;;;;5089310;28;20484;-73
2024/01/11 03:42:19;;;;;;;0.30;0.30;;;-2.90;99.90;;;;;;5089142;28;20181;-73
2024/01/11 03:44:45;;;;;;;0.30;0.30;;;-2.90;99.90;;;;;;5087722;28;20488;-73
2024/01/11 03:47:10;;;;;;;0.30;0.30;;;-2.90;99.90;;;;;;5088032;28;20544;-75
2024/01/11 03:49:36;;;;;;;0.30;0.30;;;-2.90;99.90;;;;;;5089975;28;20696;-73
2024/01/11 03:52:02;;;;;;;0.30;0.30;;;-3.00;99.90;;;;;;5091885;28;20180;-73
2024/01/11 03:54:27;;;;;;;0.30;0.30;;;-3.00;99.90;;;;;;5091668;28;20196;-74
2024/01/11 03:56:53;;;;;;;0.30;0.30;;;-3.00;99.90;;;;;;5093252;28;20172;-78
2024/01/11 03:59:18;;;;;;;0.30;0.30;;;-3.10;99.90;;;;;;5092469;28;20682;-73
2024/01/11 04:01:44;;;;;;;0.30;0.30;;;-3.10;99.90;;;;;;5091390;28;20209;-72
2024/01/11 04:04:10;;;;;;;0.30;0.30;;;-3.10;99.90;;;;;;5091476;28;20650;-77
2024/01/11 04:06:36;;;;;;;0.30;0.30;;;-3.20;99.90;;;;;;5091266;28;20356;-77
2024/01/11 04:09:02;;;;;;;0.30;0.30;;;-3.20;99.90;;;;;;5092736;28;20189;-73
2024/01/11 04:11:28;;;;;;;0.30;0.30;;;-3.10;99.90;;;;;;5091800;28;20698;-76
2024/01/11 04:13:54;;;;;;;0.30;0.30;;;-3.00;99.90;;;;;;5092399;28;20400;-77
2024/01/11 04:16:21;;;;;;;0.30;0.30;;;-2.90;99.90;;;;;;5091436;28;20183;-77
2024/01/11 04:18:47;;;;;;;0.30;0.30;;;-2.90;99.90;;;;;;5091385;28;20200;-77
2024/01/11 04:21:30;;;;;;;0.30;0.30;;;-2.80;99.90;;;;;;5092955;28;20180;-74
2024/01/11 04:23:56;;;;;;;0.30;0.30;;;-2.80;99.90;;;;;;5092417;28;20929;-72
2024/01/11 04:26:22;;;;;;;0.30;0.30;;;-2.80;99.90;;;;;;5092223;28;20219;-78
2024/01/11 04:28:49;;;;;;;0.30;0.30;;;-2.90;99.90;;;;;;5091068;28;20196;-73
2024/01/11 04:31:16;;;;;;;0.30;0.30;;;-2.90;99.90;;;;;;5091172;28;20262;-73
2024/01/11 04:33:46;;;;;;;0.30;0.30;;;-2.90;99.90;;;;;;5090804;28;20192;-77
2024/01/11 04:36:12;;;;;;;0.30;0.30;;;-2.90;99.90;;;;;;5092237;28;20191;-77
2024/01/11 04:38:38;;;;;;;0.30;0.30;;;-2.90;99.90;;;;;;5091436;28;20184;-77
2024/01/11 04:41:12;;;;;;;0.30;0.30;;;-2.90;99.90;;;;;;5092472;28;20261;-74
2024/01/11 04:43:42;;;;;;;0.30;0.30;;;-2.90;99.90;;;;;;5092150;28;20188;-77
2024/01/11 04:46:17;;;;;;;0.30;0.30;;;-2.90;99.90;;;;;;5092420;28;20313;-73
2024/01/11 04:48:44;;;;;;;0.30;0.30;;;-2.90;99.90;;;;;;5090524;28;20561;-73
2024/01/11 04:51:12;;;;;;;0.30;0.30;;;-3.00;99.90;;;;;;5092177;28;20249;-72
2024/01/11 04:53:42;;;;;;;0.30;0.30;;;-3.00;99.90;;;;;;5091853;28;20196;-77
2024/01/11 04:56:09;;;;;;;0.30;0.30;;;-3.10;99.90;;;;;;5092474;28;20177;-77
2024/01/11 04:58:37;;;;;;;0.30;0.30;;;-3.10;99.90;;;;;;5091518;28;20846;-77
2024/01/11 05:01:04;;;;;;;0.30;0.30;;;-3.10;99.90;;;;;;5091776;28;20587;-73
2024/01/11 05:03:31;;;;;;;0.30;0.30;;;-3.10;99.90;;;;;;5090711;28;20292;-73
2024/01/11 05:05:57;;;;;;;0.30;0.30;;;-3.00;99.90;;;;;;5091429;28;20764;-76
2024/01/11 05:08:23;;;;;;;0.30;0.30;;;-2.90;99.90;;;;;;5091615;28;20277;-73
2024/01/11 05:10:49;;;;;;;0.30;0.30;;;-2.90;99.90;;;;;;5090809;28;20173;-73
2024/01/11 05:13:15;;;;;;;0.30;0.30;;;-2.90;99.90;;;;;;5090090;28;20191;-74
2024/01/11 05:15:41;;;;;;;0.30;0.30;;;-2.90;99.90;;;;;;5089790;28;20185;-74
2024/01/11 05:18:06;;;;;;;0.30;0.30;;;-2.90;99.90;;;;;;5090333;28;20193;-74
2024/01/11 05:20:32;;;;;;;0.30;0.30;;;-2.80;99.90;;;;;;5091263;28;20220;-74
2024/01/11 05:22:57;;;;;;;0.30;0.30;;;-2.80;99.90;;;;;;5089579;28;20200;-78
2024/01/11 05:25:23;;;;;;;0.30;0.30;;;-2.90;99.90;;;;;;5091441;28;20213;-74
2024/01/11 05:27:49;;;;;;;0.30;0.30;;;-3.00;99.90;;;;;;5089498;28;20260;-74
2024/01/11 05:30:14;;;;;;;0.30;0.30;;;-3.20;99.90;;;;;;5091511;28;20264;-79
2024/01/11 05:32:40;;;;;;;0.30;0.30;;;-3.20;99.90;;;;;;5089541;28;20735;-79
2024/01/11 05:35:06;;;;;;;0.30;0.30;;;-3.30;99.90;;;;;;5091145;28;20222;-79
2024/01/11 05:37:32;;;;;;;0.30;0.30;;;-3.30;99.90;;;;;;5089803;28;20284;-74
2024/01/11 05:39:57;;;;;;;0.30;0.30;;;-3.40;99.90;;;;;;5088962;28;20752;-78
2024/01/11 05:42:24;;;;;;;0.30;0.30;;;-3.40;99.90;;;;;;5088159;28;20645;-74
2024/01/11 05:44:50;;;;;;;0.30;0.30;;;-3.50;99.90;;;;;;5090228;28;20188;-78
2024/01/11 05:47:15;;;;;;;0.30;0.30;;;-3.50;99.90;;;;;;5090468;28;20297;-78
2024/01/11 05:49:41;;;;;;;0.30;0.30;;;-3.50;99.90;;;;;;5087753;28;20220;-74
2024/01/11 05:52:07;;;;;;;0.30;0.30;;;-3.50;99.90;;;;;;5085211;28;20187;-79
2024/01/11 05:54:33;;;;;;;0.30;0.30;;;-3.50;99.90;;;;;;5088962;28;20310;-78
2024/01/11 05:56:59;;;;;;;0.30;0.30;;;-3.50;99.90;;;;;;5088240;28;20180;-74
2024/01/11 05:59:25;;;;;;;0.30;0.30;;;-3.50;99.90;;;;;;5084794;28;20200;-79
2024/01/11 06:01:50;;;;;;;0.30;0.30;;;-3.50;99.90;;;;;;5088481;28;20180;-79
2024/01/11 06:04:16;;;;;;;0.30;0.30;;;-3.50;99.90;;;;;;5082744;28;20306;-74
2024/01/11 06:06:42;;;;;;;0.30;0.30;;;-3.50;99.90;;;;;;5085566;28;20297;-75
2024/01/11 06:09:08;;;;;;;0.30;0.30;;;-3.50;99.90;;;;;;5085109;28;20201;-75
2024/01/11 06:11:34;;;;;;;0.30;0.30;;;-3.50;99.90;;;;;;5081998;28;20192;-80
2024/01/11 06:14:01;;;;;;;0.30;0.30;;;-3.60;99.90;;;;;;5082929;28;20407;-79
2024/01/11 06:16:26;;;;;;;0.30;0.30;;;-3.60;99.90;;;;;;5083544;28;20412;-80
2024/01/11 06:18:52;;;;;;;0.30;0.30;;;-3.60;99.90;;;;;;5085056;28;20613;-75
2024/01/11 06:21:18;;;;;;;0.30;0.30;;;-3.60;99.90;;;;;;5085963;28;20271;-77
2024/01/11 06:23:44;;;;;;;0.30;0.30;;;-3.60;99.90;;;;;;5087785;28;20197;-77
2024/01/11 06:26:10;;;;;;;0.30;0.30;;;-3.60;99.90;;;;;;5087323;28;20299;-76
2024/01/11 06:28:35;;;;;;;0.30;0.30;;;-3.70;99.90;;;;;;5087098;28;20236;-80
2024/01/11 06:31:01;;;;;;;0.30;0.30;;;-3.70;99.90;;;;;;5079038;28;20419;-76
2024/01/11 06:33:28;;;;;;;0.30;0.30;;;-3.70;99.90;;;;;;5088628;28;20279;-75
2024/01/11 06:35:54;;;;;;;0.40;0.40;;;-3.70;99.90;;;;;;5084601;28;20419;-75
2024/01/11 06:38:19;;;;;;;0.30;0.30;;;-3.70;99.90;;;;;;5083910;28;20787;-74
2024/01/11 06:40:45;;;;;;;0.30;0.30;;;-3.70;99.90;;;;;;5084904;28;20440;-74
2024/01/11 06:43:11;;;;;;;0.30;0.30;;;-3.70;99.90;;;;;;5087135;28;20188;-78
2024/01/11 06:45:37;;;;;;;0.30;0.30;;;-3.80;99.90;;;;;;5083660;28;20473;-79
2024/01/11 06:48:03;;;;;;;0.30;0.30;;;-3.80;99.90;;;;;;5077623;28;20448;-75
2024/01/11 06:50:28;;;;;;;0.30;0.30;;;-3.80;99.90;;;;;;5082268;28;20425;-79
2024/01/11 06:52:54;;;;;;;0.30;0.30;;;-3.80;99.90;;;;;;5080948;28;20619;-74
2024/01/11 06:55:20;;;;;;;0.30;0.30;;;-3.70;99.90;;;;;;5077984;28;20264;-79
2024/01/11 06:57:49;;;;;;;0.30;0.30;;;-3.70;99.90;;;;;;5078569;28;20989;-74
2024/01/11 07:00:14;;;;;;;0.30;0.30;;;-3.70;99.90;;;;;;5076944;28;20196;-74
2024/01/11 07:02:41;;;;;;;0.30;0.30;;;-3.70;99.90;;;;;;5078431;28;20180;-75
2024/01/11 07:05:07;;;;;;;0.30;0.30;;;-3.60;99.90;;;;;;5082046;28;20208;-74
2024/01/11 07:07:33;;;;;;;0.30;0.30;;;-3.50;99.90;;;;;;5084348;28;20176;-74
2024/01/11 07:09:59;;;;;;;0.30;0.30;;;-3.30;99.90;;;;;;5084065;28;20227;-79
2024/01/11 07:12:25;;;;;;;0.30;0.30;;;-3.00;99.90;;;;;;5079700;28;20258;-74
2024/01/11 07:14:51;;;;;;;0.30;0.30;;;-2.80;99.90;;;;;;5080917;28;20325;-79
2024/01/11 07:17:17;;;;;;;1.65;1.65;;;-2.70;99.90;;;;;;5078319;28;20169;-79
2024/01/11 07:19:43;;;;;;;0.30;0.30;;;-2.70;99.90;;;;;;5072008;28;20212;-75
2024/01/11 07:22:09;;;;;;;0.30;0.30;;;-2.70;99.90;;;;;;5098857;28;20431;-79
2024/01/11 07:24:37;;;;;;;0.30;0.30;;;-2.70;99.90;;;;;;5086505;28;20426;-74
2024/01/11 07:27:06;;;;;;;0.30;0.30;;;-2.80;99.90;;;;;;5086142;28;20212;-79
2024/01/11 07:29:33;;;;;;;0.30;0.30;;;-2.70;99.90;;;;;;5083025;28;20216;-74
2024/01/11 07:31:59;;;;;;;0.30;0.30;;;-2.70;99.90;;;;;;5082903;28;20183;-74
2024/01/11 07:34:24;;;;;;;0.30;0.30;;;-2.70;99.90;;;;;;5089418;28;20216;-79
2024/01/11 07:36:51;;;;;;;0.30;0.30;;;-2.70;99.90;;;;;;5085770;28;20689;-78
2024/01/11 07:39:17;;;;;;;0.30;0.30;;;-2.60;99.90;;;;;;5082649;28;20192;-79
2024/01/11 07:41:43;;;;;;;0.30;0.30;;;-2.30;99.90;;;;;;5084117;28;20216;-74
2024/01/11 07:44:08;;;;;;;0.30;0.30;;;-1.90;99.90;;;;;;5084880;28;20224;-79
2024/01/11 07:46:34;;;;;;;0.30;0.30;;;-1.60;99.90;;;;;;5084086;28;20734;-80
2024/01/11 07:49:00;;;;;;;0.40;0.40;;;-1.20;99.90;;;;;;5087521;28;20736;-78
2024/01/11 07:51:27;;;;;;;0.30;0.30;;;-0.90;99.90;;;;;;5088041;28;20185;-76
2024/01/11 07:53:53;;;;;;;0.40;0.40;;;-0.50;99.90;;;;;;5078413;28;20708;-80
2024/01/11 07:56:18;;;;;;;0.30;0.30;;;0.00;99.90;;;;;;5074113;28;20199;-81
2024/01/11 07:58:44;;;;;;;0.30;0.30;;;0.40;99.90;;;;;;5100480;27;20213;-76
2024/01/11 08:01:10;;;;;;;0.63;0.63;;;0.90;99.90;;;;;;5104212;27;20836;-82
2024/01/11 08:03:35;;;;;;;0.30;0.30;;;1.30;99.90;;;;;;5080669;28;20606;-78
2024/01/11 08:06:01;;;;;;;2.33;2.27;;;1.70;99.90;;;;;;5081418;28;20240;-81
2024/01/11 08:08:27;;;;;;;0.30;0.30;;;2.10;99.90;;;;;;5028000;28;21314;-76
2024/01/11 08:10:53;;;;;;;0.40;0.40;;;2.70;99.90;;;;;;5024048;28;20565;-76
2024/01/11 08:13:21;;;;;;;0.40;0.40;;;3.30;99.90;;;;;;5053345;28;22008;-81
2024/01/11 08:15:47;;;;;;;0.50;0.50;;;4.00;99.90;;;;;;5027784;28;20251;-77
2024/01/11 08:18:13;;;;;;;2.77;2.67;;;4.80;99.90;;;;;;5036141;28;20867;-80
2024/01/11 08:20:39;;;;;;;0.40;0.30;;;5.50;99.90;;;;;;5063381;28;20460;-79
2024/01/11 08:23:05;;;;;;;0.40;0.30;;;6.10;99.90;;;;;;5058159;28;20187;-75
2024/01/11 08:25:30;;;;;;;0.50;0.50;;;6.60;99.90;;;;;;5081255;28;20471;-79
2024/01/11 08:27:56;;;;;;;3.03;2.93;;;7.10;99.90;;;;;;5089567;27;20199;-79
2024/01/11 08:30:22;;;;;;;3.67;3.47;;;7.70;99.90;;;;;;5076925;28;20238;-75
2024/01/11 08:32:48;;;;;;;1.20;1.20;;;8.20;99.60;;;;;;5080009;28;20188;-81
2024/01/11 08:35:14;;;;;;;0.40;0.30;;;8.60;99.00;;;;;;5076091;28;20185;-76
2024/01/11 08:37:40;;;;;;;1.77;1.67;;;8.90;98.50;;;;;;5099388;28;20199;-76
2024/01/11 08:40:06;;;;;;;0.70;0.70;;;9.30;97.20;;;;;;5101368;27;20211;-76
2024/01/11 08:42:32;;;;;;;0.75;0.75;;;9.50;96.60;;;;;;5089910;28;20187;-75
2024/01/11 08:44:58;;;;;;;0.40;0.30;;;9.70;96.00;;;;;;5087773;28;20206;-76
2024/01/11 08:47:24;;;;;;;0.53;0.53;;;9.70;95.30;;;;;;5085508;28;20342;-79
2024/01/11 08:49:49;;;;;;;4.90;4.60;;;9.60;95.60;;;;;;5090433;28;20463;-79
2024/01/11 08:52:15;;;;;;;4.23;3.83;;;9.70;95.50;;;;;;5086923;28;20202;-76
2024/01/11 08:54:41;;;;;;;0.40;0.30;;;9.90;95.10;;;;;;5086533;28;20204;-79
2024/01/11 08:57:07;;;;;;;5.97;5.47;;;10.30;94.50;;;;;;5085567;28;20195;-76
2024/01/11 08:59:32;;;;;;;4.83;4.63;;;10.60;94.10;;;;;;5086940;28;20830;-79
2024/01/11 09:01:58;;;;;;;0.40;0.30;;;11.00;93.80;;;;;;5087991;28;20211;-77
2024/01/11 09:04:24;;;;;;;8.27;7.53;;;11.40;93.70;;;;;;5104355;27;20199;-80
2024/01/11 09:06:49;;;;;;;22.87;6.40;;;11.90;92.50;;;;;;5087646;28;20881;-80
2024/01/11 09:09:16;;;;;;;2.93;2.73;;;12.40;92.40;;;;;;5081860;28;20206;-80
2024/01/11 09:11:42;;;;;;;0.63;0.63;;;12.80;91.60;;;;;;5083436;28;20185;-76
2024/01/11 09:14:10;;;;;;;1.13;1.13;;;13.30;91.20;;;;;;5079444;28;20720;-76
2024/01/11 09:16:36;;;;;;;2.73;2.53;;;13.60;90.50;;;;;;5077579;28;20176;-80
2024/01/11 09:19:02;;;;;;;4.13;3.83;;;14.00;90.00;;;;;;5080941;28;20841;-80
2024/01/11 09:21:28;;;;;;;0.40;0.30;;;14.40;88.90;;;;;;5095871;27;20408;-79
2024/01/11 09:23:54;;;;;;;2.53;2.40;;;14.80;87.30;;;;;;5078320;28;20200;-76
2024/01/11 09:26:19;;;;;;;0.40;0.40;;;15.20;85.60;;;;;;5086028;28;20480;-79
2024/01/11 09:28:45;;;;;;;0.70;0.70;;;15.40;85.00;;;;;;5072658;28;20255;-76
2024/01/11 09:31:11;;;;;;;1.50;1.40;;;15.70;84.00;;;;;;5025111;28;20188;-80
2024/01/11 09:33:38;;;;;;;5.83;5.27;;;15.90;82.70;;;;;;5023288;28;20440;-76
2024/01/11 09:36:04;;;;;;;0.80;0.80;;;16.00;82.10;;;;;;5068886;28;20472;-79
2024/01/11 09:38:30;;;;;;;2.67;2.43;;;16.10;81.60;;;;;;5081943;28;20519;-79
2024/01/11 09:41:10;;;;;;;3.37;3.17;;;16.30;81.20;;;;;;5084316;28;20444;-75
2024/01/11 09:43:36;;;;;;;4.00;3.70;;;16.40;80.80;;;;;;5106256;27;20242;-79
2024/01/11 09:46:05;;;;;;;1.80;1.70;;;16.50;80.70;;;;;;5082021;28;20491;-79
2024/01/11 09:48:44;;;;;;;6.63;3.60;;;16.40;80.40;;;;;;5079848;28;20299;-79
2024/01/11 09:51:13;;;;;;;3.23;2.50;;;16.40;79.90;;;;;;5081058;28;20429;-75
2024/01/11 09:53:40;;;;;;;1.80;0.93;;;16.30;79.40;;;;;;5076028;28;20459;-77
2024/01/11 09:56:08;;;;;;;0.67;0.50;;;16.30;79.00;;;;;;5044968;28;20424;-81
2024/01/11 09:58:38;;;;;;;1.80;1.70;;;16.20;78.80;;;;;;5077575;28;20442;-81
2024/01/11 10:01:09;;;;;;;0.40;0.30;;;16.00;78.50;;;;;;5081235;28;20439;-78
2024/01/11 10:03:35;;;;;;;0.40;0.30;;;15.70;78.70;;;;;;5074339;28;20435;-75
2024/01/11 10:06:01;;;;;;;0.83;0.83;;;15.40;79.20;;;;;;5088928;28;20487;-77
2024/01/11 10:08:29;;;;;;;1.67;1.67;;;15.00;78.70;;;;;;5095057;27;20267;-81
2024/01/11 10:10:55;;;;;;;0.40;0.30;;;14.40;79.00;;;;;;5083209;28;21034;-77
2024/01/11 10:13:29;;;;;;;1.00;1.00;;;14.00;81.00;;;;;;5086070;28;20484;-78
2024/01/11 10:16:09;;;;;;;0.40;0.40;;;13.60;80.50;;;;;;5039289;28;20199;-77
2024/01/11 10:18:36;;;;;;;0.40;0.40;;;13.00;82.30;;;;;;5022318;28;22422;-82
2024/01/11 10:21:03;;;;;;;0.40;0.20;;;12.50;84.10;;;;;;5026137;28;21167;-77
2024/01/11 10:23:29;;;;;;;3.03;1.70;;;12.00;85.30;;;;;;5045889;28;20456;-81
2024/01/11 10:25:57;;;;;;;0.50;0.50;;;11.50;84.30;;;;;;5095093;27;20850;-79
2024/01/11 10:28:23;;;;;;;0.60;0.60;;;11.10;84.40;;;;;;5084777;28;20564;-75
2024/01/11 10:30:52;;;;;;;0.50;0.50;;;10.60;85.10;;;;;;5082242;28;20185;-80
2024/01/11 10:33:20;;;;;;;1.48;1.38;;;10.30;87.10;;;;;;5106227;27;20225;-77
2024/01/11 10:35:48;;;;;;;0.50;0.30;;;9.90;87.40;;;;;;5062004;28;20205;-79
2024/01/11 10:38:34;;;;;;;0.30;0.20;;;9.50;88.60;;;;;;5029779;28;20291;-79
2024/01/11 10:41:04;;;;;;;1.15;1.15;;;9.30;89.80;;;;;;5077012;28;20245;-79
2024/01/11 10:43:31;;;;;;;0.30;0.20;;;9.00;90.20;;;;;;5083433;28;20204;-76
2024/01/11 10:46:00;;;;;;;7.40;6.95;;;8.90;90.30;;;;;;5086660;28;20207;-77
2024/01/11 10:48:28;;;;;;;0.30;0.20;;;8.70;90.30;;;;;;5079994;28;20207;-79
2024/01/11 10:51:00;;;;;;;0.30;0.20;;;8.50;90.40;;;;;;5082383;28;20184;-79
2024/01/11 10:53:42;;;;;;;0.30;0.20;;;8.40;91.00;;;;;;5076548;28;20246;-76
2024/01/11 10:56:09;;;;;;;0.30;0.30;;;8.20;90.40;;;;;;5074116;28;20567;-79
2024/01/11 10:58:35;;;;;;;0.30;0.20;;;7.70;90.50;;;;;;5039459;28;20684;-79
2024/01/11 11:01:04;;;;;;;0.30;0.30;;;7.50;90.50;;;;;;5086284;28;20184;-77
2024/01/11 11:03:31;;;;;;;0.30;0.20;;;7.40;90.70;;;;;;5081103;28;20452;-78
2024/01/11 11:05:58;;;;;;;0.30;0.20;;;7.30;90.80;;;;;;5082191;28;20322;-77
2024/01/11 11:08:26;;;;;;;0.30;0.20;;;7.20;91.40;;;;;;5090129;28;20220;-79
2024/01/11 11:10:59;;;;;;;0.30;0.30;;;7.10;91.80;;;;;;5071594;28;20190;-78
2024/01/11 11:13:26;;;;;;;0.30;0.20;;;7.10;92.30;;;;;;5087225;28;20204;-78
2024/01/11 11:15:57;;;;;;;0.30;0.20;;;6.90;91.80;;;;;;5099092;28;20720;-76
2024/01/11 11:18:23;;;;;;;0.30;0.20;;;6.60;92.10;;;;;;5070493;28;20199;-79
2024/01/11 11:20:50;;;;;;;0.30;0.20;;;6.50;92.30;;;;;;5081143;28;20214;-76
2024/01/11 11:23:17;;;;;;;0.30;0.20;;;6.50;92.30;;;;;;5074892;28;20271;-77
2024/01/11 11:25:46;;;;;;;0.30;0.25;;;6.30;92.30;;;;;;5070016;28;20216;-78
2024/01/11 11:28:13;;;;;;;0.98;0.88;;;6.30;92.70;;;;;;5044931;28;20210;-77
2024/01/11 11:30:41;;;;;;;0.30;0.20;;;6.30;92.70;;;;;;5076616;28;20190;-77
2024/01/11 11:33:25;;;;;;;47.25;11.32;;;6.30;92.70;;;;;;5080797;28;20274;-76
2024/01/11 11:35:57;;;;;;;0.30;0.30;;;6.20;93.10;;;;;;5082154;28;20172;-77
2024/01/11 11:38:25;;;;;;;1.48;1.48;;;6.10;93.20;;;;;;5080605;28;20204;-76
2024/01/11 11:40:52;;;;;;;0.30;0.20;;;6.10;92.60;;;;;;5078101;28;20189;-76
2024/01/11 11:43:20;;;;;;;0.30;0.20;;;6.10;92.30;;;;;;5076660;28;20204;-77
2024/01/11 11:45:47;;;;;;;0.30;0.20;;;6.10;92.60;;;;;;5070746;28;20302;-76
2024/01/11 11:48:32;;;;;;;0.30;0.30;;;6.10;92.30;;;;;;5033102;28;20286;-75
2024/01/11 11:51:16;;;;;;;0.30;0.20;;;6.10;92.40;;;;;;5031678;28;20268;-77
2024/01/11 11:53:43;;;;;;;2.15;2.05;;;6.00;92.60;;;;;;5075479;28;20204;-77
2024/01/11 11:56:10;;;;;;;0.30;0.20;;;6.10;92.90;;;;;;5077794;28;20181;-77
2024/01/11 11:58:36;;;;;;;0.30;0.20;;;6.20;92.70;;;;;;5073853;28;20808;-78
2024/01/11 12:01:04;;;;;;;0.30;0.30;;;6.20;92.60;;;;;;5069545;28;20203;-78
2024/01/11 12:03:37;;;;;;;0.30;0.30;;;6.30;92.60;;;;;;5077229;28;20851;-76
2024/01/11 12:06:14;;;;;;;0.30;0.20;;;6.30;92.50;;;;;;5035236;28;20246;-77
2024/01/11 12:08:43;;;;;;;0.30;0.20;;;6.30;91.90;;;;;;5016112;28;20195;-76
2024/01/11 12:11:09;;;;;;;0.30;0.20;;;6.30;91.70;;;;;;5013264;28;20742;-77
2024/01/11 12:13:36;;;;;;;0.30;0.20;;;6.30;91.80;;;;;;5063607;28;20851;-75
2024/01/11 12:16:02;;;;;;;0.30;0.30;;;6.40;91.70;;;;;;5046259;28;21435;-79
2024/01/11 12:18:27;;;;;;;0.30;0.28;;;6.40;91.50;;;;;;5019902;28;20777;-76
2024/01/11 12:20:53;;;;;;;0.30;0.30;;;6.40;91.50;;;;;;5024345;28;20286;-77
2024/01/11 12:23:19;;;;;;;0.30;0.20;;;6.30;91.50;;;;;;5024281;28;20199;-76
2024/01/11 12:25:45;;;;;;;0.30;0.20;;;6.30;91.90;;;;;;5056357;28;20294;-79
2024/01/11 12:28:11;;;;;;;0.30;0.20;;;6.30;91.70;;;;;;5034691;28;20442;-77
2024/01/11 12:30:38;;;;;;;0.30;0.30;;;6.30;92.00;;;;;;5026677;28;20561;-76
2024/01/11 12:33:05;;;;;;;0.30;0.20;;;6.40;92.40;;;;;;5026187;28;20207;-77
2024/01/11 12:35:31;;;;;;;0.30;0.20;;;6.40;92.50;;;;;;5028903;28;20241;-76
2024/01/11 12:38:05;;;;;;;0.30;0.20;;;6.40;92.90;;;;;;5036103;28;20207;-77
2024/01/11 12:40:37;;;;;;;0.82;0.80;;;6.40;92.90;;;;;;5084181;28;20176;-75
2024/01/11 12:43:04;;;;;;;0.30;0.20;;;6.40;92.50;;;;;;5078648;28;20200;-75
2024/01/11 12:45:32;;;;;;;0.30;0.30;;;6.40;92.50;;;;;;5077399;28;20265;-76
2024/01/11 12:47:59;;;;;;;0.30;0.20;;;6.40;92.00;;;;;;5050595;28;20287;-75